createdAt,value
2022-10-05T00:00:03.879Z,83.59
2022-10-05T00:01:30.186Z,83.70
2022-10-05T00:02:32.300Z,83.46
2022-10-05T00:03:36.456Z,83.61
2022-10-05T00:04:38.304Z,83.45
2022-10-05T00:05:40.108Z,83.56
2022-10-05T00:07:08.430Z,83.58
2022-10-05T00:08:10.177Z,83.95
2022-10-05T00:09:16.635Z,83.82
2022-10-05T00:10:18.817Z,83.52
2022-10-05T00:11:20.656Z,83.72
2022-10-05T00:12:23.551Z,84.25
2022-10-05T00:13:29.131Z,83.91
2022-10-05T00:14:34.386Z,83.82
2022-10-05T00:15:36.028Z,83.89
2022-10-05T00:16:37.662Z,83.91
2022-10-05T00:17:41.272Z,83.92
2022-10-05T00:18:48.059Z,83.92
2022-10-05T00:19:53.465Z,83.91
2022-10-05T00:20:56.337Z,83.89
2022-10-05T00:22:33.112Z,83.85
2022-10-05T00:23:34.791Z,83.89
2022-10-05T00:24:36.527Z,83.91
2022-10-05T00:25:38.379Z,83.86
2022-10-05T00:26:39.929Z,83.90
2022-10-05T00:27:41.961Z,83.88
2022-10-05T00:28:43.737Z,83.87
2022-10-05T00:29:46.569Z,83.78
2022-10-05T00:30:48.284Z,83.66
2022-10-05T00:31:50.258Z,83.92
2022-10-05T00:32:56.109Z,83.88
2022-10-05T00:34:01.261Z,83.63
2022-10-05T00:35:03.248Z,83.68
2022-10-05T00:36:07.119Z,83.70
2022-10-05T00:37:09.193Z,83.73
2022-10-05T00:38:10.923Z,83.60
2022-10-05T00:39:13.334Z,83.56
2022-10-05T00:40:25.813Z,83.60
2022-10-05T00:41:52.861Z,83.58
2022-10-05T00:43:03.111Z,83.76
2022-10-05T00:44:15.258Z,83.77
2022-10-05T00:45:37.025Z,83.77
2022-10-05T00:47:31.019Z,83.92
2022-10-05T00:48:45.379Z,83.48
2022-10-05T00:50:08.113Z,83.65
2022-10-05T00:51:27.618Z,83.66
2022-10-05T00:52:46.060Z,83.91
2022-10-05T00:54:14.717Z,84.02
2022-10-05T00:55:45.696Z,83.96
2022-10-05T00:56:53.525Z,84.06
2022-10-05T00:58:25.734Z,84.10
2022-10-05T00:59:36.301Z,84.13
2022-10-05T01:00:45.142Z,84.17
2022-10-05T01:02:23.874Z,83.94
2022-10-05T01:03:37.831Z,84.17
2022-10-05T01:04:59.444Z,84.16
2022-10-05T01:06:09.657Z,84.33
2022-10-05T01:07:35.246Z,84.19
2022-10-05T01:08:51.826Z,84.41
2022-10-05T01:10:17.768Z,84.33
2022-10-05T01:11:46.857Z,84.36
2022-10-05T01:12:55.289Z,84.47
2022-10-05T01:14:15.582Z,84.56
2022-10-05T01:15:30.853Z,84.70
2022-10-05T01:17:04.351Z,84.46
2022-10-05T01:18:26.409Z,84.47
2022-10-05T01:19:59.826Z,84.34
2022-10-05T01:21:13.385Z,84.77
2022-10-05T01:22:36.585Z,84.56
2022-10-05T01:23:41.192Z,84.55
2022-10-05T01:25:04.291Z,84.56
2022-10-05T01:26:45.569Z,84.92
2022-10-05T01:28:16.174Z,84.77
2022-10-05T01:29:23.658Z,84.52
2022-10-05T01:31:20.544Z,84.77
2022-10-05T01:32:49.293Z,84.69
2022-10-05T01:34:04.236Z,84.80
2022-10-05T01:35:28.145Z,84.69
2022-10-05T01:37:07.016Z,84.76
2022-10-05T01:38:39.312Z,84.46
2022-10-05T01:40:19.894Z,84.75
2022-10-05T01:41:40.505Z,84.91
2022-10-05T01:42:44.760Z,84.77
2022-10-05T01:43:57.389Z,84.65
2022-10-05T01:45:14.193Z,85.03
2022-10-05T01:46:29.835Z,85.16
2022-10-05T01:48:03.550Z,84.66
2022-10-05T01:49:42.464Z,85.09
2022-10-05T01:51:16.206Z,85.28
2022-10-05T01:52:38.856Z,84.98
2022-10-05T01:53:40.770Z,85.50
2022-10-05T01:54:48.484Z,85.14
2022-10-05T01:55:56.259Z,85.06
2022-10-05T01:57:03.496Z,85.12
2022-10-05T01:58:17.163Z,85.27
2022-10-05T01:59:51.949Z,85.29
2022-10-05T02:01:04.217Z,85.41
2022-10-05T02:02:17.609Z,85.28
2022-10-05T02:03:27.166Z,85.25
2022-10-05T02:06:15.055Z,85.07
2022-10-05T02:07:32.042Z,85.14
2022-10-05T02:08:45.814Z,85.24
2022-10-05T02:09:53.481Z,85.52
2022-10-05T02:11:03.005Z,85.35
2022-10-05T02:12:15.411Z,85.29
2022-10-05T02:13:24.841Z,85.76
2022-10-05T02:14:32.639Z,85.60
2022-10-05T02:15:45.667Z,85.27
2022-10-05T02:16:50.763Z,85.20
2022-10-05T02:17:58.926Z,85.51
2022-10-05T02:19:41.621Z,85.33
2022-10-05T02:20:46.582Z,85.63
2022-10-05T02:22:03.967Z,85.51
2022-10-05T02:23:21.668Z,85.42
2022-10-05T02:24:29.114Z,85.85
2022-10-05T02:25:34.467Z,85.62
2022-10-05T02:26:38.657Z,85.56
2022-10-05T02:28:03.808Z,85.52
2022-10-05T02:29:10.942Z,85.80
2022-10-05T02:30:16.565Z,85.78
2022-10-05T02:31:34.759Z,85.83
2022-10-05T02:33:02.033Z,86.09
2022-10-05T02:34:28.549Z,85.89
2022-10-05T02:35:38.730Z,86.05
2022-10-05T02:36:40.471Z,85.99
2022-10-05T02:37:56.628Z,86.04
2022-10-05T02:39:06.539Z,86.31
2022-10-05T02:40:27.023Z,86.20
2022-10-05T02:41:46.954Z,85.92
2022-10-05T02:43:19.739Z,86.17
2022-10-05T02:44:49.767Z,86.47
2022-10-05T02:46:06.376Z,86.47
2022-10-05T02:47:32.940Z,86.47
2022-10-05T02:48:43.498Z,86.35
2022-10-05T02:50:03.184Z,86.16
2022-10-05T02:51:15.733Z,86.26
2022-10-05T02:52:25.451Z,86.40
2022-10-05T02:53:33.620Z,86.17
2022-10-05T02:55:15.180Z,86.41
2022-10-05T02:56:32.874Z,86.50
2022-10-05T02:57:42.021Z,86.63
2022-10-05T02:58:51.840Z,86.80
2022-10-05T03:00:08.793Z,87.19
2022-10-05T03:01:23.155Z,87.01
2022-10-05T03:02:56.008Z,87.05
2022-10-05T03:04:24.017Z,86.86
2022-10-05T03:05:31.577Z,86.95
2022-10-05T03:06:41.607Z,87.51
2022-10-05T03:07:55.870Z,87.08
2022-10-05T03:09:05.195Z,87.33
2022-10-05T03:10:34.342Z,87.47
2022-10-05T03:11:54.859Z,87.60
2022-10-05T03:13:16.045Z,87.39
2022-10-05T03:14:37.287Z,87.53
2022-10-05T03:16:20.204Z,87.45
2022-10-05T03:17:28.049Z,87.34
2022-10-05T03:18:35.708Z,87.49
2022-10-05T03:20:08.075Z,87.75
2022-10-05T03:21:12.872Z,87.55
2022-10-05T03:22:32.812Z,87.20
2022-10-05T03:24:07.342Z,87.84
2022-10-05T03:25:27.373Z,87.77
2022-10-05T03:26:49.458Z,87.94
2022-10-05T03:28:00.707Z,87.83
2022-10-05T03:29:14.246Z,87.97
2022-10-05T03:30:22.704Z,88.00
2022-10-05T03:31:41.698Z,87.83
2022-10-05T03:32:52.584Z,87.54
2022-10-05T03:34:05.679Z,87.96
2022-10-05T03:35:13.181Z,87.91
2022-10-05T03:36:17.785Z,87.96
2022-10-05T03:37:33.200Z,87.98
2022-10-05T03:38:56.703Z,87.63
2022-10-05T03:40:19.779Z,87.78
2022-10-05T03:41:54.206Z,87.97
2022-10-05T03:43:24.587Z,88.17
2022-10-05T03:44:32.298Z,88.12
2022-10-05T03:45:55.923Z,88.09
2022-10-05T03:46:57.515Z,88.02
2022-10-05T03:48:27.936Z,87.91
2022-10-05T03:49:32.714Z,88.35
2022-10-05T03:51:14.579Z,88.11
2022-10-05T03:52:28.295Z,88.24
2022-10-05T03:53:37.895Z,88.34
2022-10-05T03:55:11.420Z,87.89
2022-10-05T03:56:25.122Z,88.28
2022-10-05T03:57:31.273Z,88.20
2022-10-05T03:58:41.202Z,87.75
2022-10-05T04:00:02.159Z,87.88
2022-10-05T04:01:21.699Z,87.96
2022-10-05T04:02:28.852Z,87.93
2022-10-05T04:03:43.979Z,88.01
2022-10-05T04:04:59.735Z,87.97
2022-10-05T04:06:10.582Z,88.13
2022-10-05T04:07:25.150Z,88.33
2022-10-05T04:08:45.386Z,88.20
2022-10-05T04:09:52.483Z,88.23
2022-10-05T04:10:57.298Z,88.26
2022-10-05T04:12:23.085Z,88.35
2022-10-05T04:13:39.612Z,88.44
2022-10-05T04:14:46.576Z,88.09
2022-10-05T04:16:05.426Z,88.36
2022-10-05T04:17:17.508Z,88.07
2022-10-05T04:18:33.759Z,88.43
2022-10-05T04:19:49.842Z,88.29
2022-10-05T04:20:57.740Z,88.12
2022-10-05T04:22:15.011Z,88.50
2022-10-05T04:23:28.596Z,88.18
2022-10-05T04:24:53.503Z,88.24
2022-10-05T04:26:04.221Z,89.05
2022-10-05T04:27:23.811Z,89.50
2022-10-05T04:28:37.855Z,89.92
2022-10-05T04:29:47.640Z,90.05
2022-10-05T04:30:52.504Z,90.16
2022-10-05T04:32:21.118Z,90.47
2022-10-05T04:33:23.091Z,90.24
2022-10-05T04:34:46.466Z,90.91
2022-10-05T04:36:16.040Z,90.83
2022-10-05T04:37:28.124Z,90.68
2022-10-05T04:38:35.543Z,90.89
2022-10-05T04:40:03.096Z,91.22
2022-10-05T04:41:38.598Z,91.50
2022-10-05T04:43:12.645Z,91.34
2022-10-05T04:44:38.418Z,91.10
2022-10-05T04:45:56.071Z,91.44
2022-10-05T04:47:18.300Z,91.28
2022-10-05T04:48:53.818Z,91.34
2022-10-05T04:49:56.286Z,91.28
2022-10-05T04:50:58.169Z,91.27
2022-10-05T04:52:18.640Z,91.13
2022-10-05T04:53:35.330Z,90.98
2022-10-05T04:54:46.062Z,91.07
2022-10-05T04:55:54.009Z,91.17
2022-10-05T04:57:03.019Z,90.76
2022-10-05T04:58:40.056Z,91.08
2022-10-05T05:00:09.040Z,90.36
2022-10-05T05:01:37.510Z,90.35
2022-10-05T05:02:46.845Z,90.40
2022-10-05T05:03:55.297Z,90.46
2022-10-05T05:05:18.822Z,90.23
2022-10-05T05:06:41.707Z,90.56
2022-10-05T05:08:05.071Z,90.02
2022-10-05T05:09:34.571Z,89.93
2022-10-05T05:11:15.040Z,89.81
2022-10-05T05:12:36.534Z,89.67
2022-10-05T05:14:29.178Z,89.58
2022-10-05T05:15:43.560Z,89.39
2022-10-05T05:16:55.085Z,89.27
2022-10-05T05:17:56.784Z,89.27
2022-10-05T05:19:10.550Z,88.85
2022-10-05T05:20:32.931Z,89.03
2022-10-05T05:22:03.721Z,88.66
2022-10-05T05:23:06.949Z,89.01
2022-10-05T05:24:44.589Z,88.84
2022-10-05T05:26:09.159Z,88.58
2022-10-05T05:27:24.025Z,88.39
2022-10-05T05:28:34.479Z,88.25
2022-10-05T05:30:06.464Z,88.29
2022-10-05T05:31:19.250Z,88.15
2022-10-05T05:33:05.890Z,87.94
2022-10-05T05:34:48.427Z,87.94
2022-10-05T05:36:23.408Z,87.86
2022-10-05T05:38:02.000Z,87.71
2022-10-05T05:39:12.945Z,87.66
2022-10-05T05:40:19.100Z,87.59
2022-10-05T05:41:30.069Z,87.47
2022-10-05T05:42:47.829Z,87.38
2022-10-05T05:44:19.884Z,87.13
2022-10-05T05:45:41.180Z,87.12
2022-10-05T05:47:03.378Z,87.00
2022-10-05T05:48:21.032Z,87.03
2022-10-05T05:50:05.578Z,86.92
2022-10-05T05:51:22.284Z,86.75
2022-10-05T05:52:30.043Z,86.92
2022-10-05T05:53:45.276Z,86.68
2022-10-05T05:55:29.054Z,86.46
2022-10-05T05:56:37.595Z,86.60
2022-10-05T05:58:18.654Z,86.45
2022-10-05T05:59:45.082Z,86.29
2022-10-05T06:00:54.469Z,86.04
2022-10-05T06:02:07.724Z,86.03
2022-10-05T06:03:22.092Z,85.81
2022-10-05T06:04:56.371Z,85.84
2022-10-05T06:06:03.135Z,85.67
2022-10-05T06:07:05.976Z,85.53
2022-10-05T06:08:22.981Z,85.56
2022-10-05T06:09:30.488Z,85.36
2022-10-05T06:10:56.900Z,85.23
2022-10-05T06:12:08.067Z,85.12
2022-10-05T06:13:19.940Z,85.19
2022-10-05T06:14:31.835Z,84.96
2022-10-05T06:15:43.244Z,84.80
2022-10-05T06:17:09.091Z,84.76
2022-10-05T06:18:14.828Z,84.71
2022-10-05T06:19:20.703Z,84.66
2022-10-05T06:20:51.176Z,84.17
2022-10-05T06:22:02.060Z,84.20
2022-10-05T06:23:11.710Z,84.30
2022-10-05T06:24:20.395Z,84.29
2022-10-05T06:25:43.891Z,84.05
2022-10-05T06:26:57.713Z,84.22
2022-10-05T06:28:10.568Z,84.15
2022-10-05T06:29:23.810Z,83.99
2022-10-05T06:30:39.553Z,84.06
2022-10-05T06:32:02.146Z,83.88
2022-10-05T06:33:20.705Z,83.74
2022-10-05T06:34:43.834Z,83.80
2022-10-05T06:36:32.629Z,83.66
2022-10-05T06:38:00.403Z,83.20
2022-10-05T06:39:25.153Z,83.43
2022-10-05T06:40:42.866Z,83.31
2022-10-05T06:42:05.710Z,83.14
2022-10-05T06:43:48.166Z,82.90
2022-10-05T06:45:11.114Z,83.06
2022-10-05T06:46:42.118Z,83.18
2022-10-05T06:48:35.077Z,83.13
2022-10-05T06:50:01.308Z,82.95
2022-10-05T06:51:39.992Z,82.83
2022-10-05T06:53:07.927Z,82.86
2022-10-05T06:54:15.766Z,82.75
2022-10-05T06:55:32.024Z,82.70
2022-10-05T06:56:52.726Z,82.69
2022-10-05T06:58:25.770Z,82.49
2022-10-05T06:59:43.779Z,82.46
2022-10-05T07:00:53.582Z,82.58
2022-10-05T07:01:58.645Z,82.31
2022-10-05T07:03:10.115Z,82.45
2022-10-05T07:04:24.019Z,82.30
2022-10-05T07:05:50.371Z,82.08
2022-10-05T07:06:57.237Z,82.13
2022-10-05T07:08:07.604Z,82.22
2022-10-05T07:09:24.595Z,81.78
2022-10-05T07:10:52.635Z,81.87
2022-10-05T07:12:23.067Z,81.69
2022-10-05T07:13:55.781Z,81.88
2022-10-05T07:14:57.509Z,81.82
2022-10-05T07:16:22.707Z,81.90
2022-10-05T07:17:36.733Z,81.31
2022-10-05T07:19:16.500Z,81.44
2022-10-05T07:20:50.125Z,81.19
2022-10-05T07:22:24.986Z,81.17
2022-10-05T07:23:48.571Z,81.08
2022-10-05T07:25:18.966Z,81.26
2022-10-05T07:26:30.435Z,81.28
2022-10-05T07:27:41.808Z,81.40
2022-10-05T07:29:12.162Z,81.11
2022-10-05T07:30:15.465Z,80.99
2022-10-05T07:31:23.874Z,80.75
2022-10-05T07:32:54.872Z,80.59
2022-10-05T07:34:22.597Z,80.66
2022-10-05T07:36:05.510Z,80.68
2022-10-05T07:37:32.217Z,80.54
2022-10-05T07:38:53.708Z,80.79
2022-10-05T07:40:18.951Z,80.44
2022-10-05T07:41:53.475Z,80.42
2022-10-05T07:43:05.528Z,80.17
2022-10-05T07:44:27.267Z,80.13
2022-10-05T07:46:00.970Z,80.41
2022-10-05T07:47:25.562Z,80.31
2022-10-05T07:48:44.550Z,80.33
2022-10-05T07:50:13.659Z,80.52
2022-10-05T07:51:27.656Z,80.43
2022-10-05T07:52:51.891Z,80.36
2022-10-05T07:54:13.000Z,80.17
2022-10-05T07:55:21.376Z,80.16
2022-10-05T07:56:37.793Z,80.16
2022-10-05T07:57:56.534Z,80.17
2022-10-05T07:59:07.181Z,80.16
2022-10-05T08:00:47.793Z,79.98
2022-10-05T08:01:58.684Z,79.73
2022-10-05T08:03:10.844Z,79.79
2022-10-05T08:04:23.943Z,79.83
2022-10-05T08:05:27.803Z,79.66
2022-10-05T08:06:40.209Z,79.58
2022-10-05T08:07:42.534Z,79.81
2022-10-05T08:08:56.817Z,79.51
2022-10-05T08:09:58.698Z,79.45
2022-10-05T08:11:12.079Z,79.22
2022-10-05T08:12:23.485Z,79.13
2022-10-05T08:13:38.840Z,79.28
2022-10-05T08:14:52.299Z,79.29
2022-10-05T08:16:00.050Z,79.32
2022-10-05T08:17:10.799Z,79.16
2022-10-05T08:18:23.993Z,79.20
2022-10-05T08:19:34.155Z,79.21
2022-10-05T08:20:51.399Z,78.74
2022-10-05T08:22:05.607Z,78.52
2022-10-05T08:23:25.046Z,78.39
2022-10-05T08:24:29.614Z,78.12
2022-10-05T08:25:44.776Z,78.08
2022-10-05T08:26:51.024Z,78.09
2022-10-05T08:28:04.301Z,77.99
2022-10-05T08:29:27.061Z,77.79
2022-10-05T08:30:34.972Z,77.45
2022-10-05T08:31:39.567Z,76.71
2022-10-05T08:33:15.221Z,76.74
2022-10-05T08:34:34.045Z,76.52
2022-10-05T08:35:43.355Z,76.58
2022-10-05T08:36:58.051Z,76.90
2022-10-05T08:38:16.132Z,76.69
2022-10-05T08:39:20.770Z,76.16
2022-10-05T08:40:41.548Z,76.14
2022-10-05T08:42:01.111Z,76.24
2022-10-05T08:43:21.393Z,76.44
2022-10-05T08:44:37.295Z,76.29
2022-10-05T08:46:21.333Z,76.41
2022-10-05T08:47:36.612Z,76.19
2022-10-05T08:49:03.862Z,76.48
2022-10-05T08:51:01.318Z,75.93
2022-10-05T08:52:28.583Z,75.85
2022-10-05T08:53:41.717Z,75.67
2022-10-05T08:55:10.332Z,75.41
2022-10-05T08:56:30.716Z,74.97
2022-10-05T08:57:41.155Z,75.04
2022-10-05T08:59:07.071Z,75.56
2022-10-05T09:00:31.930Z,75.20
2022-10-05T09:02:10.922Z,75.14
2022-10-05T09:03:25.053Z,74.96
2022-10-05T09:04:45.452Z,74.82
2022-10-05T09:06:19.934Z,74.69
2022-10-05T09:07:36.353Z,74.85
2022-10-05T09:08:56.570Z,74.85
2022-10-05T09:10:35.747Z,74.73
2022-10-05T09:11:43.167Z,74.35
2022-10-05T09:13:18.100Z,74.26
2022-10-05T09:14:56.421Z,73.83
2022-10-05T09:16:45.962Z,74.07
2022-10-05T09:18:09.478Z,73.68
2022-10-05T09:19:32.289Z,73.19
2022-10-05T09:20:53.211Z,73.46
2022-10-05T09:22:04.407Z,73.47
2022-10-05T09:23:39.408Z,73.66
2022-10-05T09:25:03.194Z,73.44
2022-10-05T09:26:11.726Z,72.90
2022-10-05T09:27:16.178Z,73.27
2022-10-05T09:28:48.988Z,72.77
2022-10-05T09:30:14.915Z,72.81
2022-10-05T09:32:00.467Z,73.21
2022-10-05T09:33:31.086Z,73.10
2022-10-05T09:34:51.186Z,72.84
2022-10-05T09:36:04.889Z,72.93
2022-10-05T09:37:21.737Z,72.90
2022-10-05T09:39:04.625Z,72.51
2022-10-05T09:40:24.829Z,72.34
2022-10-05T09:41:35.261Z,72.22
2022-10-05T09:42:49.530Z,72.24
2022-10-05T09:43:53.812Z,72.25
2022-10-05T09:45:23.563Z,72.34
2022-10-05T09:46:37.355Z,72.54
2022-10-05T09:47:50.800Z,72.57
2022-10-05T09:49:23.386Z,72.57
2022-10-05T09:50:43.822Z,72.13
2022-10-05T09:51:58.139Z,71.84
2022-10-05T09:53:10.142Z,71.57
2022-10-05T09:54:28.206Z,70.55
2022-10-05T09:55:30.467Z,70.40
2022-10-05T09:56:59.596Z,70.79
2022-10-05T09:58:14.072Z,70.47
2022-10-05T09:59:21.427Z,71.01
2022-10-05T10:00:40.127Z,71.13
2022-10-05T10:02:22.360Z,70.88
2022-10-05T10:03:53.426Z,70.28
2022-10-05T10:05:05.126Z,70.60
2022-10-05T10:06:12.461Z,70.73
2022-10-05T10:07:16.911Z,70.60
2022-10-05T10:08:30.670Z,70.04
2022-10-05T10:09:44.400Z,69.52
2022-10-05T10:11:01.634Z,69.70
2022-10-05T10:12:18.110Z,69.16
2022-10-05T10:14:02.047Z,68.51
2022-10-05T10:15:15.731Z,68.91
2022-10-05T10:16:39.152Z,68.02
2022-10-05T10:17:46.895Z,68.32
2022-10-05T10:19:09.998Z,68.25
2022-10-05T10:20:22.386Z,68.37
2022-10-05T10:22:01.549Z,68.56
2022-10-05T10:23:03.127Z,68.30
2022-10-05T10:24:57.192Z,68.05
2022-10-05T10:26:49.648Z,67.75
2022-10-05T10:28:18.740Z,67.42
2022-10-05T10:29:45.331Z,67.46
2022-10-05T10:31:22.812Z,67.64
2022-10-05T10:32:51.914Z,67.59
2022-10-05T10:34:15.663Z,66.96
2022-10-05T10:35:20.547Z,67.23
2022-10-05T10:36:34.316Z,67.66
2022-10-05T10:38:12.507Z,67.87
2022-10-05T10:39:44.703Z,67.78
2022-10-05T10:41:07.951Z,67.62
2022-10-05T10:42:38.782Z,67.50
2022-10-05T10:43:46.562Z,67.29
2022-10-05T10:44:48.287Z,67.46
2022-10-05T10:46:08.077Z,67.22
2022-10-05T10:47:27.930Z,66.55
2022-10-05T10:48:29.731Z,66.31
2022-10-05T10:49:57.443Z,65.42
2022-10-05T10:51:09.731Z,66.10
2022-10-05T10:52:48.486Z,65.83
2022-10-05T10:54:27.885Z,65.78
2022-10-05T10:55:33.452Z,65.75
2022-10-05T10:56:54.787Z,65.97
2022-10-05T10:58:16.444Z,65.16
2022-10-05T10:59:36.631Z,64.88
2022-10-05T11:01:06.023Z,64.29
2022-10-05T11:02:19.804Z,63.92
2022-10-05T11:03:33.391Z,63.89
2022-10-05T11:04:56.561Z,64.57
2022-10-05T11:06:42.438Z,64.65
2022-10-05T11:07:54.233Z,64.79
2022-10-05T11:09:40.407Z,64.04
2022-10-05T11:11:12.670Z,64.61
2022-10-05T11:12:34.547Z,64.04
2022-10-05T11:14:02.247Z,63.26
2022-10-05T11:15:24.674Z,63.77
2022-10-05T11:17:07.624Z,64.00
2022-10-05T11:18:27.664Z,63.86
2022-10-05T11:20:03.078Z,63.80
2022-10-05T11:21:31.103Z,63.18
2022-10-05T11:22:54.207Z,63.29
2022-10-05T11:24:18.541Z,63.87
2022-10-05T11:25:43.703Z,64.07
2022-10-05T11:27:19.794Z,63.72
2022-10-05T11:28:45.600Z,64.28
2022-10-05T11:30:01.243Z,63.84
2022-10-05T11:31:34.007Z,63.87
2022-10-05T11:33:01.422Z,63.67
2022-10-05T11:34:33.788Z,63.76
2022-10-05T11:35:53.365Z,62.88
2022-10-05T11:37:32.405Z,62.97
2022-10-05T11:39:19.953Z,63.23
2022-10-05T11:40:42.384Z,63.79
2022-10-05T11:42:06.521Z,63.44
2022-10-05T11:43:49.963Z,63.88
2022-10-05T11:44:54.290Z,64.15
2022-10-05T11:46:07.987Z,64.07
2022-10-05T11:47:33.242Z,64.09
2022-10-05T11:48:40.554Z,63.81
2022-10-05T11:49:42.177Z,63.99
2022-10-05T11:51:14.552Z,63.73
2022-10-05T11:52:39.776Z,63.80
2022-10-05T11:54:02.646Z,63.57
2022-10-05T11:55:27.252Z,63.71
2022-10-05T11:56:41.883Z,63.54
2022-10-05T11:57:52.340Z,63.39
2022-10-05T11:59:07.085Z,63.79
2022-10-05T12:00:15.371Z,63.67
2022-10-05T12:01:26.855Z,63.47
2022-10-05T12:02:34.505Z,63.47
2022-10-05T12:03:57.459Z,63.36
2022-10-05T12:05:22.183Z,63.26
2022-10-05T12:06:51.422Z,63.42
2022-10-05T12:08:14.742Z,63.30
2022-10-05T12:09:31.541Z,63.52
2022-10-05T12:10:48.162Z,63.03
2022-10-05T12:11:58.805Z,62.73
2022-10-05T12:13:03.459Z,62.67
2022-10-05T12:14:19.558Z,62.62
2022-10-05T12:15:44.109Z,62.41
2022-10-05T12:17:14.009Z,62.45
2022-10-05T12:18:30.538Z,62.60
2022-10-05T12:19:38.229Z,62.90
2022-10-05T12:20:45.645Z,62.94
2022-10-05T12:22:14.725Z,62.58
2022-10-05T12:23:34.090Z,62.45
2022-10-05T12:24:35.786Z,62.45
2022-10-05T12:25:47.729Z,62.27
2022-10-05T12:27:06.680Z,62.32
2022-10-05T12:28:17.461Z,62.54
2022-10-05T12:29:41.251Z,62.67
2022-10-05T12:31:18.075Z,62.65
2022-10-05T12:32:36.471Z,62.69
2022-10-05T12:34:08.399Z,62.47
2022-10-05T12:35:48.288Z,63.00
2022-10-05T12:37:09.266Z,62.60
2022-10-05T12:38:16.404Z,62.44
2022-10-05T12:39:55.430Z,62.51
2022-10-05T12:41:36.258Z,62.71
2022-10-05T12:42:59.167Z,62.56
2022-10-05T12:44:15.927Z,62.40
2022-10-05T12:45:53.297Z,62.51
2022-10-05T12:47:30.008Z,62.55
2022-10-05T12:48:55.511Z,62.22
2022-10-05T12:50:32.596Z,62.39
2022-10-05T12:51:54.301Z,62.52
2022-10-05T12:53:21.181Z,61.58
2022-10-05T12:55:00.135Z,61.83
2022-10-05T12:56:41.956Z,61.79
2022-10-05T12:57:54.872Z,61.48
2022-10-05T12:59:08.421Z,61.36
2022-10-05T13:00:22.635Z,61.25
2022-10-05T13:01:42.665Z,60.94
2022-10-05T13:02:44.418Z,60.85
2022-10-05T13:04:18.393Z,60.72
2022-10-05T13:05:32.288Z,60.38
2022-10-05T13:06:51.553Z,60.04
2022-10-05T13:08:29.439Z,60.24
2022-10-05T13:09:41.720Z,60.21
2022-10-05T13:11:11.392Z,60.05
2022-10-05T13:12:44.080Z,59.57
2022-10-05T13:13:54.533Z,59.63
2022-10-05T13:15:03.795Z,59.28
2022-10-05T13:16:14.953Z,58.99
2022-10-05T13:17:28.930Z,58.81
2022-10-05T13:18:55.435Z,58.94
2022-10-05T13:20:04.779Z,59.34
2022-10-05T13:21:22.267Z,59.08
2022-10-05T13:22:45.854Z,59.21
2022-10-05T13:24:06.595Z,58.96
2022-10-05T13:25:17.595Z,58.98
2022-10-05T13:26:27.496Z,59.21
2022-10-05T13:27:34.827Z,58.94
2022-10-05T13:28:47.645Z,59.04
2022-10-05T13:30:18.169Z,59.08
2022-10-05T13:31:26.110Z,58.81
2022-10-05T13:32:36.190Z,59.11
2022-10-05T13:34:07.329Z,59.17
2022-10-05T13:35:24.479Z,59.02
2022-10-05T13:36:46.180Z,58.73
2022-10-05T13:38:10.644Z,58.30
2022-10-05T13:39:27.963Z,58.59
2022-10-05T13:40:50.076Z,58.45
2022-10-05T13:42:17.128Z,57.07
2022-10-05T13:45:00.550Z,57.23
2022-10-05T13:46:10.226Z,56.68
2022-10-05T13:47:39.021Z,57.27
2022-10-05T13:48:56.398Z,57.57
2022-10-05T13:50:18.412Z,57.33
2022-10-05T13:51:28.745Z,57.21
2022-10-05T13:52:43.740Z,56.79
2022-10-05T13:54:11.405Z,56.73
2022-10-05T13:55:46.105Z,57.13
2022-10-05T13:56:55.134Z,56.51
2022-10-05T13:58:04.993Z,56.80
2022-10-05T13:59:42.714Z,56.85
2022-10-05T14:01:02.544Z,56.42
2022-10-05T14:02:16.834Z,56.54
2022-10-05T14:03:27.307Z,56.58
2022-10-05T14:04:43.480Z,56.22
2022-10-05T14:05:55.847Z,56.71
2022-10-05T14:07:21.263Z,56.64
2022-10-05T14:08:47.057Z,55.89
2022-10-05T14:09:51.757Z,56.29
2022-10-05T14:10:55.415Z,56.70
2022-10-05T14:12:02.994Z,56.64
2022-10-05T14:13:23.088Z,56.33
2022-10-05T14:14:27.693Z,56.55
2022-10-05T14:15:37.312Z,56.45
2022-10-05T14:16:51.815Z,56.62
2022-10-05T14:17:54.011Z,56.38
2022-10-05T14:19:04.803Z,56.51
2022-10-05T14:20:35.759Z,56.89
2022-10-05T14:21:53.356Z,57.03
2022-10-05T14:23:01.774Z,57.26
2022-10-05T14:24:44.620Z,57.36
2022-10-05T14:25:53.226Z,57.33
2022-10-05T14:26:58.859Z,57.42
2022-10-05T14:28:32.357Z,57.36
2022-10-05T14:29:37.413Z,57.32
2022-10-05T14:30:39.848Z,57.54
2022-10-05T14:31:58.709Z,57.72
2022-10-05T14:33:03.648Z,57.93
2022-10-05T14:34:26.948Z,57.99
2022-10-05T14:35:50.485Z,58.32
2022-10-05T14:36:59.415Z,58.45
2022-10-05T14:38:15.745Z,58.85
2022-10-05T14:39:24.957Z,58.98
2022-10-05T14:40:37.577Z,59.12
2022-10-05T14:41:48.238Z,59.24
2022-10-05T14:42:50.818Z,59.51
2022-10-05T14:44:02.081Z,59.66
2022-10-05T14:45:20.024Z,59.85
2022-10-05T14:46:27.815Z,59.79
2022-10-05T14:47:31.555Z,59.97
2022-10-05T14:48:44.746Z,60.08
2022-10-05T14:50:15.339Z,60.21
2022-10-05T14:51:31.408Z,60.40
2022-10-05T14:52:34.100Z,60.53
2022-10-05T14:53:40.381Z,60.56
2022-10-05T14:55:00.335Z,60.64
2022-10-05T14:56:31.730Z,60.99
2022-10-05T14:58:08.344Z,61.25
2022-10-05T14:59:42.793Z,61.38
2022-10-05T15:01:00.411Z,61.63
2022-10-05T15:02:24.409Z,61.93
2022-10-05T15:03:46.012Z,62.14
2022-10-05T15:05:16.464Z,62.29
2022-10-05T15:06:39.117Z,62.38
2022-10-05T15:07:45.187Z,62.74
2022-10-05T15:09:17.382Z,62.76
2022-10-05T15:10:31.851Z,62.83
2022-10-05T15:12:03.608Z,63.18
2022-10-05T15:13:15.128Z,63.29
2022-10-05T15:14:19.780Z,63.37
2022-10-05T15:15:41.690Z,63.49
2022-10-05T15:16:45.000Z,63.59
2022-10-05T15:17:54.351Z,63.73
2022-10-05T15:19:24.070Z,63.83
2022-10-05T15:20:38.571Z,64.10
2022-10-05T15:21:59.486Z,64.31
2022-10-05T15:23:24.393Z,64.44
2022-10-05T15:24:49.358Z,64.65
2022-10-05T15:26:07.082Z,64.69
2022-10-05T15:27:17.263Z,64.68
2022-10-05T15:28:39.879Z,65.06
2022-10-05T15:29:54.981Z,65.22
2022-10-05T15:31:03.881Z,65.29
2022-10-05T15:32:25.259Z,65.32
2022-10-05T15:33:35.645Z,65.55
2022-10-05T15:34:54.920Z,65.62
2022-10-05T15:36:22.494Z,65.97
2022-10-05T15:37:31.307Z,66.03
2022-10-05T15:38:43.785Z,66.25
2022-10-05T15:39:50.148Z,66.31
2022-10-05T15:41:18.443Z,66.23
2022-10-05T15:42:34.072Z,66.64
2022-10-05T15:43:57.882Z,66.74
2022-10-05T15:45:25.241Z,66.89
2022-10-05T15:46:49.880Z,66.93
2022-10-05T15:47:59.361Z,67.29
2022-10-05T15:49:42.863Z,67.20
2022-10-05T15:51:16.599Z,67.69
2022-10-05T15:52:40.031Z,67.68
2022-10-05T15:54:35.556Z,67.85
2022-10-05T15:56:00.963Z,68.20
2022-10-05T15:57:41.031Z,68.42
2022-10-05T15:58:48.144Z,68.47
2022-10-05T16:00:04.083Z,68.66
2022-10-05T16:01:10.869Z,68.65
2022-10-05T16:02:25.521Z,68.53
2022-10-05T16:03:43.046Z,69.24
2022-10-05T16:04:51.215Z,69.41
2022-10-05T16:06:33.044Z,69.15
2022-10-05T16:08:07.161Z,69.39
2022-10-05T16:09:45.557Z,69.61
2022-10-05T16:10:47.304Z,69.78
2022-10-05T16:12:19.874Z,70.32
2022-10-05T16:13:40.951Z,69.87
2022-10-05T16:15:15.551Z,70.25
2022-10-05T16:16:28.340Z,70.22
2022-10-05T16:17:49.280Z,70.54
2022-10-05T16:19:01.511Z,70.61
2022-10-05T16:20:26.143Z,70.71
2022-10-05T16:21:53.435Z,70.85
2022-10-05T16:23:25.538Z,71.05
2022-10-05T16:25:04.349Z,71.27
2022-10-05T16:26:07.193Z,71.54
2022-10-05T16:27:22.048Z,71.47
2022-10-05T16:29:17.302Z,71.37
2022-10-05T16:30:21.916Z,72.01
2022-10-05T16:31:48.446Z,72.00
2022-10-05T16:32:57.307Z,72.23
2022-10-05T16:34:08.725Z,72.23
2022-10-05T16:35:16.195Z,72.29
2022-10-05T16:36:43.928Z,72.34
2022-10-05T16:37:48.488Z,72.35
2022-10-05T16:39:00.721Z,72.50
2022-10-05T16:40:19.888Z,72.56
2022-10-05T16:41:53.697Z,72.71
2022-10-05T16:43:16.765Z,72.81
2022-10-05T16:44:46.100Z,73.07
2022-10-05T16:45:56.401Z,73.29
2022-10-05T16:47:27.427Z,73.12
2022-10-05T16:48:54.155Z,73.34
2022-10-05T16:50:20.886Z,73.54
2022-10-05T16:51:43.968Z,73.59
2022-10-05T16:52:54.338Z,73.79
2022-10-05T16:54:02.564Z,73.87
2022-10-05T16:55:13.355Z,74.17
2022-10-05T16:56:20.230Z,74.03
2022-10-05T16:57:34.503Z,74.27
2022-10-05T16:58:46.887Z,74.21
2022-10-05T16:59:54.397Z,74.39
2022-10-05T17:01:28.347Z,74.42